Data for 08/09/2017

Time Sea-Level Adjusted Pressure Absolute Pressure Temperature Relative Humidity Dew Point   
(mb) (inHg) (mb) (inHg) (C) (F) (%) (C) (F)
00:05 1023 30.21 853 25.19 16.8 62.2 52 7 44.5
00:10 1024 30.24 853 25.19 16.8 62.2 52 7.1 44.7
00:15 1024 30.24 853 25.19 16.6 61.9 53 7 44.7
00:20 1024 30.24 853 25.19 16.6 61.9 53 7.1 44.8
00:25 1024 30.24 853 25.19 16.5 61.6 54 7.1 44.8
00:30 1024 30.24 853 25.19 16.5 61.7 53 7.1 44.8
00:35 1024 30.24 853 25.19 16.4 61.6 54 7.1 44.8
00:40 1024 30.24 853 25.19 16.4 61.5 54 7.1 44.7
00:45 1024 30.24 853 25.19 16.3 61.4 54 7.1 44.8
00:50 1024 30.24 853 25.19 16.2 61.2 54 7.1 44.8
00:55 1024 30.24 853 25.19 16.1 61 55 7.1 44.8
01:00 1024 30.24 853 25.19 16.1 60.9 55 7.1 44.9
01:05 1024 30.24 853 25.19 16 60.7 55 7.1 44.7
01:10 1024 30.24 853 25.19 16 60.7 56 7.2 44.9
01:15 1024 30.24 853 25.19 15.8 60.5 56 7.1 44.9
01:20 1024 30.24 853 25.19 15.7 60.3 56 7.1 44.8
01:25 1024 30.24 853 25.19 15.7 60.2 56 7.1 44.8
01:30 1024 30.24 853 25.19 15.6 60.2 57 7.1 44.8
01:35 1024 30.24 853 25.19 15.6 60 57 7.1 44.7
01:40 1024 30.24 853 25.19 15.6 60 57 7.1 44.7
01:45 1024 30.24 853 25.19 15.6 60 57 7.1 44.7
01:50 1024 30.24 853 25.19 15.6 60 57 7.1 44.8
01:55 1024 30.24 853 25.19 15.5 59.9 57 7.1 44.7
02:00 1024 30.24 853 25.19 15.5 59.9 57 7.2 44.9
02:05 1024 30.24 853 25.19 15.4 59.8 57 7.1 44.8
02:10 1024 30.24 853 25.19 15.4 59.8 57 7.1 44.8
02:15 1024 30.24 853 25.19 15.4 59.7 57 7.1 44.8
02:20 1024 30.24 853 25.19 15.4 59.6 58 7.1 44.8
02:25 1024 30.24 853 25.19 15.3 59.6 58 7.1 44.8
02:30 1024 30.24 853 25.19 15.3 59.5 58 7.1 44.8
02:35 1024 30.24 853 25.19 15.3 59.5 58 7.1 44.7
02:40 1024 30.24 853 25.19 15.3 59.5 58 7 44.7
02:45 1024 30.24 853 25.19 15.2 59.3 58 7 44.6
02:50 1024 30.24 853 25.19 15.2 59.3 58 7 44.6
02:55 1024 30.24 853 25.19 15.1 59.2 58 7 44.6
03:00 1024 30.24 853 25.19 15 59 59 7.1 44.7
03:05 1024 30.24 853 25.19 14.8 58.6 59 7 44.6
03:10 1024 30.24 853 25.19 14.8 58.6 59 7 44.6
03:15 1024 30.24 853 25.19 14.8 58.6 59 6.9 44.4
03:20 1024 30.24 853 25.19 14.9 58.9 58 6.8 44.3
03:25 1024 30.24 853 25.19 15.1 59.1 58 6.9 44.3
03:30 1024 30.24 853 25.19 15.1 59.1 58 6.9 44.5
03:35 1024 30.24 853 25.19 15 59 58 7 44.6
03:40 1024 30.24 853 25.19 14.9 58.7 59 7 44.5
03:45 1024 30.24 853 25.19 14.8 58.6 59 6.9 44.5
03:50 1024 30.24 853 25.19 14.7 58.4 60 6.9 44.5
03:55 1024 30.24 853 25.19 14.5 58.1 60 7 44.6
04:00 1024 30.24 853 25.19 14.3 57.8 61 7 44.6
04:05 1024 30.24 854 25.22 14.3 57.7 61 7 44.5
04:10 1024 30.24 854 25.22 14.3 57.7 61 6.9 44.4
04:15 1024 30.24 854 25.22 14.3 57.7 61 7 44.6
04:20 1025 30.27 854 25.22 14.1 57.4 62 7 44.6
04:25 1025 30.27 854 25.22 14.1 57.3 62 7 44.6
04:30 1024 30.24 854 25.22 14 57.2 62 6.9 44.5
04:35 1024 30.24 854 25.22 13.8 56.9 63 6.9 44.4
04:40 1025 30.27 854 25.22 13.7 56.6 63 6.9 44.3
04:45 1025 30.27 854 25.22 13.6 56.5 63 6.9 44.3
04:50 1024 30.24 854 25.22 13.5 56.2 64 6.9 44.4
04:55 1025 30.27 854 25.22 13.3 55.9 65 6.8 44.2
05:00 1024 30.24 854 25.22 13.3 56 63 6.6 43.8
05:05 1024 30.24 854 25.22 13.5 56.2 63 6.6 44
05:10 1024 30.24 854 25.22 13.3 56 64 6.7 44.1
05:15 1024 30.24 854 25.22 13.1 55.7 65 6.7 44.1
05:20 1025 30.27 854 25.22 13.1 55.7 65 6.7 44.1
05:25 1024 30.24 854 25.22 13.1 55.5 63 6.3 43.4
05:30 1024 30.24 854 25.22 13.3 56 63 6.4 43.5
05:35 1024 30.24 854 25.22 13.3 56 64 6.6 44
05:40 1025 30.27 854 25.22 12.9 55.3 65 6.6 43.9
05:45 1025 30.27 854 25.22 12.8 55 66 6.6 43.8
05:50 1025 30.27 854 25.22 12.7 54.8 65 6.3 43.3
05:55 1025 30.27 854 25.22 13.1 55.5 62 6.1 42.9
06:00 1025 30.27 854 25.22 13.5 56.2 62 6.4 43.4
06:05 1025 30.27 854 25.22 13.4 56.2 62 6.3 43.3
06:10 1025 30.27 854 25.22 13.5 56.3 60 5.9 42.6
06:15 1025 30.27 854 25.22 13.7 56.7 61 6.3 43.3
06:20 1025 30.27 854 25.22 13.7 56.7 62 6.6 43.8
06:25 1025 30.27 854 25.22 13.7 56.6 63 6.7 44
06:30 1025 30.27 854 25.22 13.7 56.7 62 6.7 44
06:35 1025 30.27 854 25.22 13.9 56.9 62 6.7 44.1
06:40 1025 30.27 854 25.22 14 57.3 62 6.8 44.3
06:45 1025 30.27 854 25.22 14.3 57.7 61 6.9 44.5
06:50 1025 30.27 854 25.22 14.5 58.2 60 6.9 44.5
06:55 1025 30.27 854 25.22 14.8 58.6 59 6.9 44.4
07:00 1025 30.27 854 25.22 15 58.9 59 7.2 44.9
07:05 1025 30.27 854 25.22 15.3 59.5 58 7.2 44.9
07:10 1025 30.27 854 25.22 15.6 60 57 7.2 45
07:15 1025 30.27 854 25.22 15.7 60.3 56 7.2 44.9
07:20 1025 30.27 854 25.22 15.8 60.4 57 7.4 45.3
07:25 1025 30.27 854 25.22 15.9 60.6 56 7.2 44.9
07:30 1025 30.27 854 25.22 16.2 61.1 55 7.2 44.9
07:35 1025 30.27 854 25.22 16.2 61.1 55 7.1 44.8
07:40 1025 30.27 854 25.22 16.3 61.3 54 7.1 44.7
07:45 1024 30.24 854 25.22 16.4 61.6 53 6.9 44.5
07:50 1024 30.24 854 25.22 16.5 61.7 53 7.1 44.8
07:55 1024 30.24 854 25.22 16.7 62 53 7.1 44.7
08:00 1025 30.27 854 25.22 16.7 62.1 53 7.2 45
08:05 1025 30.27 854 25.22 16.9 62.4 52 7.1 44.8
08:10 1024 30.24 854 25.22 16.9 62.4 52 7.1 44.8
08:15 1024 30.24 854 25.22 16.9 62.5 52 7 44.6
08:20 1024 30.24 854 25.22 17.1 62.9 51 7.1 44.8
08:25 1024 30.24 854 25.22 17.4 63.3 51 7.2 45
08:30 1024 30.24 854 25.22 17.6 63.6 50 7.1 44.8
08:35 1024 30.24 854 25.22 17.7 63.9 49 7 44.6
08:40 1024 30.24 854 25.22 18 64.4 48 7 44.5
08:45 1025 30.27 854 25.22 17.8 64 50 7.2 45
08:50 1025 30.27 854 25.22 17.6 63.7 50 7.1 44.8
08:55 1025 30.27 854 25.22 17.6 63.6 49 6.9 44.4
09:00 1025 30.27 854 25.22 17.5 63.4 50 7 44.6
09:05 1025 30.27 854 25.22 17.5 63.4 50 7.2 44.9
09:10 1025 30.27 854 25.22 17.5 63.5 50 7 44.6
09:15 1025 30.27 854 25.22 17.7 63.8 48 6.7 44.1
09:20 1024 30.24 854 25.22 17.8 64.1 49 7 44.6
09:25 1024 30.24 854 25.22 18.1 64.5 49 7.2 45
09:30 1024 30.24 854 25.22 18.4 65 48 7.4 45.4
09:35 1024 30.24 854 25.22 18.3 65 50 7.7 45.9
09:40 1024 30.24 854 25.22 18.6 65.4 47 7.3 45.1
09:45 1024 30.24 854 25.22 18.4 65.1 48 7.2 45
09:50 1024 30.24 854 25.22 19.4 66.9 45 7.4 45.2
09:55 1024 30.24 854 25.22 19.5 67 45 7.4 45.3
10:00 1024 30.24 854 25.22 20.3 68.6 42 7.1 44.7
10:05 1025 30.27 854 25.22 20.9 69.5 42 7.7 45.9
10:10 1024 30.24 854 25.22 19.7 67.5 43 7 44.6
10:15 1024 30.24 854 25.22 19.5 67.1 43 6.7 44
10:20 1024 30.24 854 25.22 19.5 67 44 7.1 44.8
10:25 1024 30.24 854 25.22 19.8 67.6 42 6.8 44.2
10:30 1024 30.24 854 25.22 19.6 67.2 43 6.7 44
10:35 1024 30.24 854 25.22 19.5 67.1 44 7 44.5
10:40 1024 30.24 854 25.22 19.8 67.7 42 6.7 44
10:45 1024 30.24 854 25.22 19.9 67.7 42 6.7 44.1
10:50 1024 30.24 854 25.22 20.1 68.2 41 6.7 44
10:55 1024 30.24 853 25.19 20.2 68.4 42 6.9 44.5
11:00 1024 30.24 853 25.19 20.6 69.1 41 7 44.5
11:05 1024 30.24 853 25.19 20.7 69.3 40 6.7 44.1
11:10 1024 30.24 853 25.19 20.6 69 40 6.7 44
11:15 1024 30.24 853 25.19 21.1 69.9 39 6.7 44
11:20 1024 30.24 853 25.19 21.6 70.8 38 6.8 44.2
11:25 1024 30.24 853 25.19 21.5 70.7 37 6.3 43.3
11:30 1024 30.24 853 25.19 21.7 71.1 35 6 42.8
11:35 1024 30.24 853 25.19 21.6 70.9 35 5.9 42.5
11:40 1024 30.24 853 25.19 22.1 71.8 35 6.3 43.3
11:45 1024 30.24 853 25.19 22.3 72.2 34 5.8 42.5
11:50 1024 30.24 853 25.19 22.6 72.7 33 5.9 42.6
11:55 1024 30.24 853 25.19 22.7 72.9 34 6.3 43.3
12:00 1024 30.24 853 25.19 23 73.4 33 6 42.8
12:05 1024 30.24 853 25.19 22.8 73 34 6.3 43.4
12:10 1024 30.24 853 25.19 22.8 73 34 6.1 43
12:15 1024 30.24 853 25.19 23.3 74 32 5.9 42.6
12:20 1024 30.24 853 25.19 23.5 74.3 32 5.9 42.5
12:25 1024 30.24 853 25.19 23.5 74.2 32 5.9 42.7
12:30 1023 30.21 853 25.19 24.5 76.2 31 6.4 43.5
12:35 1023 30.21 853 25.19 24.7 76.4 31 6.8 44.2
12:40 1023 30.21 853 25.19 24.3 75.7 32 6.6 43.9
12:45 1023 30.21 853 25.19 24.1 75.3 32 6.7 44
12:50 1023 30.21 852 25.16 24.1 75.3 32 6.6 43.8
12:55 1023 30.21 852 25.16 24.9 76.9 29 6 42.7
13:00 1023 30.21 852 25.16 25.1 77.2 31 6.9 44.4
13:05 1023 30.21 852 25.16 24.5 76 30 6 42.9
13:10 1023 30.21 852 25.16 24.9 76.9 29 6.1 42.9
13:15 1023 30.21 852 25.16 25.4 77.7 29 6.2 43.1
13:20 1023 30.21 852 25.16 25.7 78.3 28 6 42.9
13:25 1023 30.21 852 25.16 25.6 78.1 28 6.2 43.2
13:30 1023 30.21 852 25.16 26.1 78.9 28 6.6 43.9
13:35 1023 30.21 852 25.16 26 78.8 29 6.9 44.5
13:40 1023 30.21 852 25.16 25.5 77.9 29 6.5 43.6
13:45 1023 30.21 852 25.16 26 78.8 29 7.1 44.7
13:50 1023 30.21 852 25.16 26.1 79 29 7 44.5
13:55 1023 30.21 852 25.16 26.5 79.8 27 6.5 43.7
14:00 1023 30.21 852 25.16 26.6 79.8 28 7 44.6
14:05 1022 30.18 852 25.16 25.7 78.3 29 6.3 43.4
14:10 1022 30.18 852 25.16 26.2 79.1 27 6.2 43.2
14:15 1022 30.18 852 25.16 26.8 80.2 27 6.5 43.8
14:20 1022 30.18 852 25.16 26.6 79.9 26 6.1 43
14:25 1022 30.18 851 25.13 26.4 79.6 28 6.5 43.7
14:30 1022 30.18 852 25.16 25.7 78.2 28 6.1 43.1
14:35 1022 30.18 852 25.16 26 78.9 28 6.2 43.1
14:40 1022 30.18 852 25.16 26.6 79.9 27 6.5 43.7
14:45 1023 30.21 852 25.16 26.4 79.5 28 6.9 44.5
14:50 1023 30.21 852 25.16 25.2 77.4 29 6.4 43.5
14:55 1023 30.21 852 25.16 24.9 76.8 30 6.5 43.7
15:00 1023 30.21 852 25.16 25.2 77.4 30 6.5 43.8
15:05 1023 30.21 852 25.16 25.3 77.6 30 6.6 43.8
15:10 1023 30.21 852 25.16 25.2 77.4 29 6.2 43.1
15:15 1023 30.21 852 25.16 25 76.9 30 6.5 43.6
15:20 1023 30.21 852 25.16 24.3 75.8 30 6.1 42.9
15:25 1023 30.21 852 25.16 24.2 75.5 30 5.8 42.5
15:30 1023 30.21 852 25.16 24.7 76.5 30 6.3 43.3
15:35 1023 30.21 852 25.16 24.6 76.3 29 5.7 42.2
15:40 1023 30.21 852 25.16 24.8 76.7 30 6.1 43
15:45 1023 30.21 852 25.16 24.2 75.6 31 6.1 43
15:50 1023 30.21 852 25.16 24 75.1 29 5.1 41.1
15:55 1023 30.21 852 25.16 23.7 74.7 30 5.3 41.6
16:00 1023 30.21 852 25.16 23.8 74.8 30 5.4 41.8
16:05 1023 30.21 852 25.16 23.8 74.8 30 5.6 42.1
16:10 1023 30.21 852 25.16 23.4 74.1 31 5.4 41.7
16:15 1023 30.21 852 25.16 23.1 73.7 31 5.4 41.7
16:20 1023 30.21 852 25.16 23 73.4 31 5 41
16:25 1023 30.21 852 25.16 22.8 73.1 32 5.4 41.7
16:30 1023 30.21 852 25.16 22.7 72.8 31 4.9 40.9
16:35 1023 30.21 852 25.16 22.7 72.8 32 5.2 41.3
16:40 1023 30.21 852 25.16 22.6 72.8 32 5.2 41.3
16:45 1023 30.21 852 25.16 22.6 72.7 32 5.3 41.5
16:50 1023 30.21 852 25.16 22.5 72.6 32 5.1 41.2
16:55 1023 30.21 852 25.16 22.6 72.6 33 5.7 42.3
17:00 1023 30.21 852 25.16 22 71.6 34 5.6 42.1
17:05 1023 30.21 852 25.16 21.4 70.6 36 5.8 42.5
17:10 1023 30.21 852 25.16 21.2 70.1 36 5.7 42.3
17:15 1023 30.21 852 25.16 21.2 70.1 36 5.8 42.4
17:20 1023 30.21 852 25.16 21 69.9 37 6.1 42.9
17:25 1023 30.21 852 25.16 20.9 69.5 39 6.7 44.1
17:30 1023 30.21 852 25.16 20.7 69.3 42 7.7 45.8
17:35 1023 30.21 852 25.16 20.3 68.5 45 8.2 46.8
17:40 1023 30.21 852 25.16 20 67.9 46 8.1 46.6
17:45 1023 30.21 852 25.16 19.8 67.6 49 8.8 47.9
17:50 1023 30.21 852 25.16 19.1 66.3 56 10.2 50.4
17:55 1023 30.21 852 25.16 18.6 65.4 55 9.4 48.9
18:00 1023 30.21 852 25.16 18.6 65.5 56 9.8 49.6
18:05 1023 30.21 852 25.16 18.8 65.8 54 9.3 48.8
18:10 1023 30.21 852 25.16 19.1 66.4 53 9.6 49.2
18:15 1023 30.21 853 25.19 19.2 66.6 50 8.7 47.6
18:20 1024 30.24 853 25.19 19.3 66.8 50 8.8 47.8
18:25 1024 30.24 853 25.19 19.2 66.6 50 8.5 47.3
18:30 1024 30.24 853 25.19 19.1 66.4 51 8.8 47.9
18:35 1024 30.24 853 25.19 18.8 65.9 50 8.4 47.2
18:40 1024 30.24 853 25.19 18.4 65.1 46 6.7 44
18:45 1024 30.24 853 25.19 18 64.4 43 5.3 41.5
18:50 1024 30.24 853 25.19 17.9 64.3 39 4.1 39.4
18:55 1024 30.24 853 25.19 17.9 64.1 42 5 41
19:00 1024 30.24 853 25.19 17.4 63.4 47 6.2 43.1
19:05 1024 30.24 853 25.19 16.9 62.5 49 6.4 43.5
19:10 1024 30.24 853 25.19 16.7 62.1 49 5.9 42.6
19:15 1024 30.24 853 25.19 16.6 61.9 50 6.3 43.4
19:20 1024 30.24 854 25.22 16 60.8 60 8.4 47.2
19:25 1024 30.24 854 25.22 15.1 59.3 62 8 46.3
19:30 1024 30.24 853 25.19 15.2 59.4 58 7.2 45
19:35 1024 30.24 853 25.19 15.4 59.7 59 7.6 45.6
19:40 1024 30.24 853 25.19 15.3 59.5 60 7.6 45.7
19:45 1024 30.24 853 25.19 15.2 59.4 58 7.2 44.9
19:50 1024 30.24 853 25.19 15.3 59.5 56 6.7 44
19:55 1024 30.24 853 25.19 15.3 59.6 56 6.7 44
20:00 1024 30.24 853 25.19 15.3 59.5 56 6.5 43.8
20:05 1024 30.24 853 25.19 15.2 59.4 55 6.4 43.6
20:10 1024 30.24 853 25.19 15.3 59.5 54 6 42.9
20:15 1024 30.24 853 25.19 15.5 59.9 52 5.7 42.3
20:20 1024 30.24 853 25.19 15.7 60.2 52 5.8 42.5
20:25 1024 30.24 853 25.19 15.5 59.9 53 6 42.8
20:30 1024 30.24 853 25.19 15.3 59.6 53 5.9 42.7
20:35 1024 30.24 853 25.19 15.3 59.5 54 6 42.8
20:40 1024 30.24 853 25.19 15.2 59.4 54 5.9 42.7
20:45 1024 30.24 853 25.19 15.1 59.1 54 6 42.7
20:50 1024 30.24 853 25.19 15 59 54 5.8 42.4
20:55 1024 30.24 853 25.19 15.1 59.1 53 5.7 42.2
21:00 1024 30.24 853 25.19 15.2 59.3 53 5.8 42.4
21:05 1024 30.24 853 25.19 15.1 59.2 55 6.2 43.2
21:10 1024 30.24 853 25.19 14.9 58.8 56 6.2 43.2
21:15 1024 30.24 853 25.19 14.7 58.5 57 6.3 43.4
21:20 1024 30.24 853 25.19 14.5 58.1 58 6.5 43.7
21:25 1024 30.24 853 25.19 14.2 57.6 60 6.5 43.8
21:30 1024 30.24 853 25.19 14.2 57.5 60 6.5 43.7
21:35 1024 30.24 853 25.19 14.2 57.6 57 6 42.8
21:40 1024 30.24 853 25.19 14.3 57.7 58 6.3 43.4
21:45 1024 30.24 853 25.19 14.2 57.5 59 6.3 43.4
21:50 1024 30.24 853 25.19 14 57.2 60 6.4 43.6
21:55 1024 30.24 853 25.19 13.8 56.9 60 6.2 43.2
22:00 1024 30.24 853 25.19 13.9 56.9 60 6.2 43.2
22:05 1024 30.24 853 25.19 13.7 56.7 61 6.3 43.4
22:10 1024 30.24 853 25.19 13.6 56.5 60 6 42.8
22:15 1024 30.24 853 25.19 13.8 56.8 60 6.1 43.1
22:20 1024 30.24 853 25.19 13.6 56.4 61 6.2 43.1
22:25 1024 30.24 853 25.19 13.4 56.2 61 6.1 43
22:30 1024 30.24 853 25.19 13.3 56 61 6.1 43.1
22:35 1024 30.24 853 25.19 13.2 55.7 62 6.2 43.1
22:40 1024 30.24 853 25.19 13 55.3 63 6.2 43.2
22:45 1024 30.24 853 25.19 12.9 55.2 63 6 42.8
22:50 1024 30.24 853 25.19 12.9 55.2 62 5.9 42.6
22:55 1024 30.24 853 25.19 12.9 55.2 62 5.9 42.6
23:00 1024 30.24 853 25.19 12.9 55.3 62 5.9 42.6
23:05 1024 30.24 854 25.22 12.8 55.1 63 5.9 42.7
23:10 1024 30.24 854 25.22 12.8 55 63 6 42.7
23:15 1024 30.24 854 25.22 12.7 54.9 63 5.8 42.5
23:20 1024 30.24 854 25.22 12.8 55 62 5.8 42.5
23:25 1024 30.24 854 25.22 12.7 54.9 63 6 42.8
23:25 1024 30.24 854 25.22 12.7 54.9 63 6 42.8
23:30 1024 30.24 854 25.22 12.6 54.6 63 5.8 42.5
23:35 1024 30.24 854 25.22 12.5 54.6 63 5.7 42.3
23:40 1024 30.24 854 25.22 12.5 54.5 64 5.8 42.4
23:45 1025 30.27 854 25.22 12.5 54.5 62 5.5 42
23:50 1025 30.27 854 25.22 12.7 54.9 62 5.6 42.1
23:55 1025 30.27 854 25.22 12.6 54.6 63 5.7 42.3
24:00 1025 30.27 854 25.22 12.4 54.3 63 5.5 42